createdAt,value
2019-02-28T00:00:56.752Z,4.26
2019-02-28T00:03:26.271Z,4.17
2019-02-28T00:05:53.702Z,4.24
2019-02-28T00:08:21.060Z,4.28
2019-02-28T00:10:48.501Z,4.23
2019-02-28T00:13:15.907Z,4.23
2019-02-28T00:15:43.397Z,4.28
2019-02-28T00:18:10.785Z,4.14
2019-02-28T00:20:38.223Z,4.18
2019-02-28T00:23:05.660Z,4.08
2019-02-28T00:25:37.783Z,4.07
2019-02-28T00:28:02.581Z,4.01
2019-02-28T00:30:30.005Z,3.92
2019-02-28T00:32:59.203Z,3.95
2019-02-28T00:35:26.714Z,3.90
2019-02-28T00:37:56.655Z,3.83
2019-02-28T00:40:23.465Z,3.78
2019-02-28T00:42:51.495Z,3.74
2019-02-28T00:45:19.027Z,3.84
2019-02-28T00:47:47.509Z,3.86
2019-02-28T00:50:15.722Z,3.82
2019-02-28T00:52:43.148Z,3.77
2019-02-28T00:55:10.721Z,3.71
2019-02-28T00:57:38.166Z,3.65
2019-02-28T01:00:06.404Z,3.71
2019-02-28T01:02:33.911Z,3.70
2019-02-28T01:05:04.817Z,3.68
2019-02-28T01:07:30.743Z,3.63
2019-02-28T01:09:58.176Z,3.66
2019-02-28T01:12:25.612Z,3.67
2019-02-28T01:14:53.025Z,3.70
2019-02-28T01:17:20.451Z,3.73
2019-02-28T01:19:47.879Z,3.91
2019-02-28T01:22:15.327Z,3.88
2019-02-28T01:24:42.776Z,3.81
2019-02-28T01:27:10.198Z,3.74
2019-02-28T01:29:37.583Z,3.92
2019-02-28T01:32:04.931Z,3.82
2019-02-28T01:34:33.053Z,3.85
2019-02-28T01:37:00.455Z,3.77
2019-02-28T01:39:29.954Z,3.86
2019-02-28T01:41:57.094Z,3.75
2019-02-28T01:44:24.481Z,3.69
2019-02-28T01:46:51.899Z,3.71
2019-02-28T01:49:19.342Z,3.70
2019-02-28T01:51:46.781Z,3.68
2019-02-28T01:54:14.225Z,3.53
2019-02-28T01:56:41.804Z,3.67
2019-02-28T01:59:09.276Z,3.67
2019-02-28T02:01:36.613Z,3.59
2019-02-28T02:04:03.960Z,3.56
2019-02-28T02:06:31.374Z,3.61
2019-02-28T02:08:58.830Z,3.57
2019-02-28T02:11:26.801Z,3.52
2019-02-28T02:13:54.793Z,3.48
2019-02-28T02:16:26.790Z,3.48
2019-02-28T02:18:51.670Z,3.48
2019-02-28T02:21:19.139Z,3.48
2019-02-28T02:23:49.573Z,3.49
2019-02-28T02:26:16.059Z,3.48
2019-02-28T02:28:43.526Z,3.39
2019-02-28T02:31:11.132Z,3.49
2019-02-28T02:33:38.524Z,3.38
2019-02-28T02:36:06.201Z,3.37
2019-02-28T02:38:40.067Z,3.40
2019-02-28T02:41:04.882Z,3.41
2019-02-28T02:43:32.382Z,3.41
2019-02-28T02:45:59.853Z,3.39
2019-02-28T02:48:27.273Z,3.37
2019-02-28T02:50:54.668Z,3.31
2019-02-28T02:53:22.157Z,3.29
2019-02-28T02:55:49.594Z,3.27
2019-02-28T02:58:17.106Z,3.35
2019-02-28T03:00:49.327Z,3.28
2019-02-28T03:03:14.088Z,3.36
2019-02-28T03:05:41.486Z,3.31
2019-02-28T03:08:08.932Z,3.34
2019-02-28T03:10:36.485Z,3.30
2019-02-28T03:13:06.033Z,3.21
2019-02-28T03:15:33.379Z,3.28
2019-02-28T03:18:00.824Z,3.30
2019-02-28T03:20:28.292Z,3.20
2019-02-28T03:22:55.702Z,3.20
2019-02-28T03:25:27.850Z,3.19
2019-02-28T03:27:56.478Z,3.18
2019-02-28T03:30:29.191Z,3.19
2019-02-28T03:32:51.144Z,3.27
2019-02-28T03:35:18.584Z,3.22
2019-02-28T03:37:45.997Z,3.36
2019-02-28T03:40:13.581Z,3.35
2019-02-28T03:42:40.954Z,3.31
2019-02-28T03:45:08.644Z,3.29
2019-02-28T03:47:36.147Z,3.28
2019-02-28T03:50:04.495Z,3.15
2019-02-28T03:52:31.925Z,3.08
2019-02-28T03:55:03.267Z,3.06
2019-02-28T03:57:29.646Z,3.03
2019-02-28T03:59:57.359Z,3.04
2019-02-28T04:02:24.959Z,3.09
2019-02-28T04:04:52.506Z,3.10
2019-02-28T04:07:19.922Z,3.08
2019-02-28T04:09:47.323Z,3.04
2019-02-28T04:12:14.684Z,3.17
2019-02-28T04:14:42.136Z,3.13
2019-02-28T04:17:09.580Z,3.12
2019-02-28T04:19:37.059Z,3.01
2019-02-28T04:22:04.491Z,2.95
2019-02-28T04:24:31.966Z,2.96
2019-02-28T04:27:06.508Z,3.00
2019-02-28T04:29:31.168Z,3.00
2019-02-28T04:31:58.239Z,3.01
2019-02-28T04:34:25.729Z,3.03
2019-02-28T04:36:53.171Z,3.10
2019-02-28T04:39:22.790Z,3.03
2019-02-28T04:41:49.943Z,3.10
2019-02-28T04:44:18.261Z,3.10
2019-02-28T04:46:46.424Z,3.05
2019-02-28T04:49:13.916Z,2.95
2019-02-28T04:51:41.384Z,2.87
2019-02-28T04:54:08.823Z,2.89
2019-02-28T04:56:36.232Z,2.98
2019-02-28T04:59:03.681Z,2.95
2019-02-28T05:01:31.231Z,2.86
2019-02-28T05:03:59.190Z,2.80
2019-02-28T05:06:27.976Z,2.70
2019-02-28T05:08:55.377Z,2.64
2019-02-28T05:11:22.821Z,2.58
2019-02-28T05:13:50.285Z,2.51
2019-02-28T05:16:17.697Z,2.63
2019-02-28T05:18:45.091Z,2.65
2019-02-28T05:21:12.601Z,2.57
2019-02-28T05:23:40.036Z,2.56
2019-02-28T05:26:07.411Z,2.62
2019-02-28T05:28:40.326Z,2.63
2019-02-28T05:31:04.184Z,2.81
2019-02-28T05:33:31.616Z,2.83
2019-02-28T05:36:00.162Z,2.81
2019-02-28T05:38:28.347Z,2.77
2019-02-28T05:40:55.837Z,2.80
2019-02-28T05:43:23.250Z,2.92
2019-02-28T05:45:50.672Z,3.01
2019-02-28T05:48:18.159Z,3.13
2019-02-28T05:50:46.922Z,3.28
2019-02-28T05:53:14.940Z,3.45
2019-02-28T05:55:42.396Z,3.56
2019-02-28T05:58:09.870Z,3.41
2019-02-28T06:00:37.787Z,3.45
2019-02-28T06:03:05.478Z,3.65
2019-02-28T06:05:32.890Z,3.75
2019-02-28T06:08:03.414Z,3.80
2019-02-28T06:10:29.786Z,3.88
2019-02-28T06:12:57.201Z,4.14
2019-02-28T06:15:24.593Z,4.27
2019-02-28T06:17:54.611Z,4.36
2019-02-28T06:20:21.448Z,4.46
2019-02-28T06:22:50.068Z,4.57
2019-02-28T06:25:24.117Z,4.72
2019-02-28T06:27:50.481Z,4.80
2019-02-28T06:30:16.376Z,4.87
2019-02-28T06:32:43.896Z,4.98
2019-02-28T06:35:15.985Z,5.10
2019-02-28T06:37:40.995Z,5.18
2019-02-28T06:40:10.666Z,5.30
2019-02-28T06:42:38.106Z,5.26
2019-02-28T06:45:07.344Z,5.41
2019-02-28T06:47:34.788Z,5.39
2019-02-28T06:50:02.254Z,5.35
2019-02-28T06:52:29.662Z,5.57
2019-02-28T06:54:57.094Z,5.74
2019-02-28T06:57:26.935Z,5.99
2019-02-28T06:59:53.811Z,6.13
2019-02-28T07:02:21.250Z,6.43
2019-02-28T07:04:49.465Z,6.64
2019-02-28T07:07:18.097Z,6.88
2019-02-28T07:09:45.525Z,6.91
2019-02-28T07:12:13.315Z,7.10
2019-02-28T07:14:40.901Z,7.16
2019-02-28T07:17:10.786Z,7.29
2019-02-28T07:19:37.724Z,7.07
2019-02-28T07:22:05.151Z,7.04
2019-02-28T07:24:37.232Z,6.92
2019-02-28T07:27:01.877Z,6.95
2019-02-28T07:29:29.337Z,7.12
2019-02-28T07:31:59.984Z,7.07
2019-02-28T07:34:26.107Z,7.24
2019-02-28T07:36:53.677Z,7.17
2019-02-28T07:39:21.214Z,7.32
2019-02-28T07:41:48.650Z,7.40
2019-02-28T07:44:21.208Z,7.69
2019-02-28T07:46:45.461Z,8.03
2019-02-28T07:49:12.995Z,7.99
2019-02-28T07:51:40.365Z,8.07
2019-02-28T07:54:07.831Z,7.99
2019-02-28T07:56:35.308Z,7.78
2019-02-28T07:59:05.316Z,7.62
2019-02-28T08:01:32.074Z,7.58
2019-02-28T08:03:59.572Z,7.58
2019-02-28T08:06:27.137Z,7.77
2019-02-28T08:08:54.511Z,7.92
2019-02-28T08:11:21.953Z,7.77
2019-02-28T08:13:49.517Z,7.77
2019-02-28T08:16:16.896Z,7.98
2019-02-28T08:18:44.413Z,8.17
2019-02-28T08:21:11.880Z,8.33
2019-02-28T08:23:39.376Z,8.38
2019-02-28T08:26:06.815Z,8.38
2019-02-28T08:28:36.809Z,8.21
2019-02-28T08:31:03.746Z,7.95
2019-02-28T08:33:31.189Z,8.34
2019-02-28T08:35:59.863Z,8.59
2019-02-28T08:38:30.138Z,8.36
2019-02-28T08:40:57.060Z,8.17
2019-02-28T08:43:27.397Z,8.38
2019-02-28T08:45:54.006Z,8.87
2019-02-28T08:48:21.554Z,9.14
2019-02-28T08:50:49.062Z,9.20
2019-02-28T08:53:16.467Z,9.34
2019-02-28T08:55:44.439Z,9.45
2019-02-28T08:58:11.950Z,9.20
2019-02-28T09:00:39.335Z,9.55
2019-02-28T09:03:06.788Z,9.66
2019-02-28T09:05:34.261Z,9.82
2019-02-28T09:08:01.849Z,10.22
2019-02-28T09:10:29.326Z,10.24
2019-02-28T09:12:56.790Z,10.34
2019-02-28T09:15:30.135Z,10.49
2019-02-28T09:17:58.406Z,10.47
2019-02-28T09:20:23.011Z,10.76
2019-02-28T09:22:50.423Z,10.67
2019-02-28T09:25:21.428Z,10.48
2019-02-28T09:27:47.278Z,10.41
2019-02-28T09:30:35.777Z,10.18
2019-02-28T09:33:03.389Z,10.12
2019-02-28T09:35:30.926Z,10.28
2019-02-28T09:38:00.230Z,10.48
2019-02-28T09:40:29.448Z,10.61
2019-02-28T09:42:56.998Z,10.51
2019-02-28T09:45:24.477Z,10.92
2019-02-28T09:47:51.907Z,11.16
2019-02-28T09:50:22.581Z,11.01
2019-02-28T09:52:49.277Z,10.43
2019-02-28T09:55:16.688Z,10.24
2019-02-28T09:57:44.142Z,10.20
2019-02-28T10:00:16.356Z,10.28
2019-02-28T10:02:45.076Z,10.21
2019-02-28T10:05:13.109Z,10.72
2019-02-28T10:07:40.502Z,10.87
2019-02-28T10:10:13.968Z,11.16
2019-02-28T10:12:43.050Z,11.34
2019-02-28T10:15:13.275Z,11.40
2019-02-28T10:17:42.232Z,11.62
2019-02-28T10:20:13.133Z,11.69
2019-02-28T10:22:40.687Z,11.72
2019-02-28T10:25:08.610Z,11.78
2019-02-28T10:27:36.079Z,11.93
2019-02-28T10:30:04.697Z,11.74
2019-02-28T10:32:32.102Z,11.84
2019-02-28T10:35:01.319Z,11.88
2019-02-28T10:37:28.918Z,11.93
2019-02-28T10:39:56.386Z,11.96
2019-02-28T10:42:23.904Z,12.17
2019-02-28T10:44:51.320Z,12.59
2019-02-28T10:47:18.848Z,12.74
2019-02-28T10:49:46.440Z,12.61
2019-02-28T10:52:13.904Z,12.71
2019-02-28T10:54:41.428Z,12.52
2019-02-28T10:57:08.858Z,12.59
2019-02-28T10:59:36.446Z,12.90
2019-02-28T11:02:04.107Z,13.14
2019-02-28T11:04:31.682Z,13.12
2019-02-28T11:07:01.964Z,13.19
2019-02-28T11:09:28.762Z,13.24
2019-02-28T11:11:56.483Z,12.91
2019-02-28T11:14:23.967Z,12.74
2019-02-28T11:16:51.533Z,12.24
2019-02-28T11:19:19.593Z,12.56
2019-02-28T11:21:47.226Z,12.86
2019-02-28T11:24:14.754Z,12.66
2019-02-28T11:26:44.837Z,12.91
2019-02-28T11:29:11.590Z,13.21
2019-02-28T11:31:39.139Z,13.42
2019-02-28T11:34:06.573Z,13.55
2019-02-28T11:36:34.949Z,13.91
2019-02-28T11:39:04.973Z,14.08
2019-02-28T11:41:32.416Z,14.07
2019-02-28T11:43:59.928Z,13.92
2019-02-28T11:46:27.451Z,13.50
2019-02-28T11:48:55.150Z,13.77
2019-02-28T11:51:22.675Z,13.95
2019-02-28T11:53:50.026Z,13.54
2019-02-28T11:56:17.473Z,13.21
2019-02-28T11:58:44.894Z,13.14
2019-02-28T12:01:12.815Z,13.32
2019-02-28T12:03:40.337Z,13.35
2019-02-28T12:06:07.803Z,13.66
2019-02-28T12:08:35.260Z,13.99
2019-02-28T12:11:03.231Z,13.53
2019-02-28T12:13:30.857Z,13.51
2019-02-28T12:15:58.348Z,13.59
2019-02-28T12:18:26.228Z,13.29
2019-02-28T12:20:53.928Z,13.22
2019-02-28T12:23:23.504Z,12.93
2019-02-28T12:25:50.757Z,13.07
2019-02-28T12:28:18.180Z,13.36
2019-02-28T12:30:45.637Z,13.32
2019-02-28T12:33:15.405Z,13.64
2019-02-28T12:35:42.533Z,13.95
2019-02-28T12:38:10.186Z,13.99
2019-02-28T12:40:37.736Z,14.11
2019-02-28T12:43:08.546Z,13.99
2019-02-28T12:45:35.664Z,13.58
2019-02-28T12:48:03.342Z,13.73
2019-02-28T12:50:30.990Z,14.18
2019-02-28T12:52:58.549Z,14.29
2019-02-28T12:55:26.094Z,14.14
2019-02-28T12:57:54.849Z,13.99
2019-02-28T13:00:25.545Z,13.91
2019-02-28T13:02:52.946Z,14.13
2019-02-28T13:05:20.736Z,14.31
2019-02-28T13:07:48.615Z,14.33
2019-02-28T13:10:17.722Z,14.34
2019-02-28T13:12:48.921Z,14.42
2019-02-28T13:15:15.527Z,14.48
2019-02-28T13:17:43.177Z,14.60
2019-02-28T13:20:13.245Z,14.68
2019-02-28T13:22:40.683Z,14.71
2019-02-28T13:25:11.748Z,14.81
2019-02-28T13:27:41.553Z,14.92
2019-02-28T13:30:14.226Z,14.85
2019-02-28T13:32:41.918Z,14.89
2019-02-28T13:35:11.600Z,14.75
2019-02-28T13:37:40.744Z,14.87
2019-02-28T13:40:09.458Z,15.02
2019-02-28T13:42:40.910Z,15.14
2019-02-28T13:45:13.555Z,15.32
2019-02-28T13:47:37.387Z,15.23
2019-02-28T13:50:07.110Z,15.29
2019-02-28T13:52:34.712Z,15.12
2019-02-28T13:55:02.216Z,15.45
2019-02-28T13:57:29.619Z,15.08
2019-02-28T13:59:57.455Z,14.93
2019-02-28T14:02:26.238Z,15.06
2019-02-28T14:04:54.394Z,15.24
2019-02-28T14:07:21.789Z,14.79
2019-02-28T14:09:49.261Z,14.66
2019-02-28T14:12:16.945Z,14.69
2019-02-28T14:14:46.093Z,14.69
2019-02-28T14:17:13.640Z,14.52
2019-02-28T14:19:41.091Z,14.70
2019-02-28T14:22:11.505Z,14.62
2019-02-28T14:24:38.014Z,14.46
2019-02-28T14:27:05.563Z,14.57
2019-02-28T14:29:33.042Z,14.56
2019-02-28T14:32:00.524Z,14.51
2019-02-28T14:34:27.977Z,14.45
2019-02-28T14:36:55.330Z,14.40
2019-02-28T14:39:22.812Z,14.43
2019-02-28T14:41:50.269Z,14.37
2019-02-28T14:44:17.671Z,14.19
2019-02-28T14:46:45.202Z,14.16
2019-02-28T14:49:13.645Z,14.51
2019-02-28T14:51:41.167Z,14.71
2019-02-28T14:54:08.768Z,14.67
2019-02-28T14:56:36.271Z,14.62
2019-02-28T14:59:03.765Z,14.54
2019-02-28T15:01:31.269Z,14.70
2019-02-28T15:03:58.709Z,14.75
2019-02-28T15:06:29.201Z,14.59
2019-02-28T15:08:55.697Z,14.57
2019-02-28T15:11:23.255Z,14.57
2019-02-28T15:13:52.906Z,14.47
2019-02-28T15:16:21.619Z,14.57
2019-02-28T15:18:51.269Z,14.70
2019-02-28T15:21:18.714Z,14.76
2019-02-28T15:23:46.169Z,14.74
2019-02-28T15:26:13.566Z,14.90
2019-02-28T15:28:40.975Z,14.83
2019-02-28T15:31:09.364Z,14.75
2019-02-28T15:33:37.006Z,14.68
2019-02-28T15:36:04.427Z,14.78
2019-02-28T15:38:31.882Z,14.96
2019-02-28T15:40:59.509Z,14.84
2019-02-28T15:43:27.064Z,14.66
2019-02-28T15:45:54.578Z,14.54
2019-02-28T15:48:22.074Z,14.37
2019-02-28T15:50:51.687Z,14.22
2019-02-28T15:53:19.003Z,14.11
2019-02-28T15:55:46.554Z,14.02
2019-02-28T15:58:14.331Z,14.13
2019-02-28T16:00:43.545Z,14.03
2019-02-28T16:03:16.814Z,13.69
2019-02-28T16:05:44.220Z,13.63
2019-02-28T16:08:11.981Z,13.52
2019-02-28T16:10:39.797Z,13.47
2019-02-28T16:13:07.405Z,13.42
2019-02-28T16:15:34.875Z,13.41
2019-02-28T16:18:02.379Z,13.47
2019-02-28T16:20:32.066Z,13.38
2019-02-28T16:22:59.649Z,13.38
2019-02-28T16:25:29.384Z,13.46
2019-02-28T16:27:56.980Z,13.43
2019-02-28T16:30:24.540Z,13.46
2019-02-28T16:32:52.326Z,13.46
2019-02-28T16:35:19.786Z,13.59
2019-02-28T16:37:47.262Z,13.61
2019-02-28T16:40:16.136Z,13.71
2019-02-28T16:42:46.476Z,13.65
2019-02-28T16:45:21.402Z,13.69
2019-02-28T16:47:48.891Z,13.60
2019-02-28T16:50:18.819Z,13.55
2019-02-28T16:52:46.325Z,13.54
2019-02-28T16:55:14.014Z,13.57
2019-02-28T16:57:43.547Z,13.50
2019-02-28T17:00:12.275Z,13.22
2019-02-28T17:02:40.652Z,12.95
2019-02-28T17:05:08.240Z,12.65
2019-02-28T17:07:35.871Z,12.51
2019-02-28T17:10:06.953Z,12.52
2019-02-28T17:13:02.984Z,12.39
2019-02-28T17:15:40.281Z,12.30
2019-02-28T17:18:13.046Z,12.19
2019-02-28T17:20:41.485Z,12.14
2019-02-28T17:23:09.575Z,12.03
2019-02-28T17:25:37.180Z,11.97
2019-02-28T17:28:24.578Z,11.86
2019-02-28T17:31:11.632Z,11.78
2019-02-28T17:33:39.047Z,11.56
2019-02-28T17:36:08.463Z,11.24
2019-02-28T17:38:37.936Z,10.80
2019-02-28T17:41:05.420Z,10.77
2019-02-28T17:43:37.056Z,10.47
2019-02-28T17:46:04.676Z,10.17
2019-02-28T17:49:31.860Z,10.07
2019-02-28T17:52:12.396Z,10.09
2019-02-28T17:55:01.734Z,10.25
2019-02-28T17:58:28.873Z,10.14
2019-02-28T18:01:17.836Z,10.08
2019-02-28T18:04:28.943Z,10.28
2019-02-28T18:07:42.684Z,10.21
2019-02-28T18:10:35.604Z,10.01
2019-02-28T18:13:20.254Z,10.34
2019-02-28T18:16:27.761Z,10.08
2019-02-28T18:19:22.490Z,9.32
2019-02-28T18:22:43.844Z,8.67
2019-02-28T18:25:34.455Z,8.43
2019-02-28T18:28:39.585Z,8.31
2019-02-28T18:31:12.360Z,8.30
2019-02-28T18:34:00.878Z,8.31
2019-02-28T18:36:30.060Z,8.25
2019-02-28T18:38:57.948Z,8.10
2019-02-28T18:41:26.209Z,8.06
2019-02-28T18:43:53.956Z,7.97
2019-02-28T18:46:22.376Z,7.94
2019-02-28T18:48:51.261Z,7.98
2019-02-28T18:51:19.648Z,7.90
2019-02-28T18:53:47.523Z,7.82
2019-02-28T18:56:15.078Z,7.79
2019-02-28T18:58:42.526Z,7.67
2019-02-28T19:01:09.974Z,7.56
2019-02-28T19:03:37.514Z,7.60
2019-02-28T19:06:05.088Z,7.73
2019-02-28T19:08:32.686Z,7.66
2019-02-28T19:11:00.214Z,7.52
2019-02-28T19:13:28.287Z,7.43
2019-02-28T19:15:55.760Z,7.22
2019-02-28T19:18:23.212Z,7.20
2019-02-28T19:20:50.814Z,7.11
2019-02-28T19:23:18.253Z,7.15
2019-02-28T19:25:45.783Z,6.94
2019-02-28T19:28:13.310Z,7.03
2019-02-28T19:30:41.222Z,7.13
2019-02-28T19:33:09.188Z,7.11
2019-02-28T19:35:37.058Z,6.99
2019-02-28T19:38:04.447Z,6.83
2019-02-28T19:40:31.967Z,7.06
2019-02-28T19:42:59.514Z,7.02
2019-02-28T19:45:27.355Z,6.89
2019-02-28T19:47:54.791Z,7.05
2019-02-28T19:50:22.234Z,6.84
2019-02-28T19:52:50.051Z,6.81
2019-02-28T19:55:17.477Z,6.81
2019-02-28T19:57:44.933Z,6.69
2019-02-28T20:00:14.116Z,6.58
2019-02-28T20:02:41.602Z,6.75
2019-02-28T20:05:09.536Z,6.61
2019-02-28T20:07:36.967Z,6.52
2019-02-28T20:10:06.252Z,6.47
2019-02-28T20:12:33.669Z,6.48
2019-02-28T20:15:01.202Z,6.48
2019-02-28T20:17:28.578Z,6.52
2019-02-28T20:19:56.005Z,6.53
2019-02-28T20:22:23.449Z,6.53
2019-02-28T20:24:50.823Z,6.56
2019-02-28T20:27:18.409Z,6.58
2019-02-28T20:29:54.741Z,6.37
2019-02-28T20:32:15.273Z,6.36
2019-02-28T20:34:42.700Z,6.32
2019-02-28T20:37:10.128Z,6.22
2019-02-28T20:39:37.509Z,6.34
2019-02-28T20:42:05.076Z,6.23
2019-02-28T20:44:32.630Z,6.25
2019-02-28T20:47:00.017Z,6.16
2019-02-28T20:49:27.456Z,6.02
2019-02-28T20:51:55.534Z,6.15
2019-02-28T20:54:23.193Z,6.03
2019-02-28T20:56:50.618Z,6.03
2019-02-28T20:59:18.049Z,6.12
2019-02-28T21:01:45.498Z,6.01
2019-02-28T21:04:12.966Z,6.02
2019-02-28T21:06:40.421Z,5.99
2019-02-28T21:09:07.843Z,6.13
2019-02-28T21:11:35.302Z,6.08
2019-02-28T21:14:03.558Z,6.29
2019-02-28T21:16:30.965Z,6.27
2019-02-28T21:18:58.378Z,6.13
2019-02-28T21:21:26.455Z,6.03
2019-02-28T21:23:53.999Z,5.99
2019-02-28T21:26:21.367Z,6.01
2019-02-28T21:28:48.843Z,6.03
2019-02-28T21:31:16.317Z,6.09
2019-02-28T21:33:43.750Z,6.15
2019-02-28T21:36:11.151Z,6.45
2019-02-28T21:38:38.595Z,6.33
2019-02-28T21:41:06.067Z,6.40
2019-02-28T21:43:33.441Z,6.47
2019-02-28T21:46:00.862Z,6.49
2019-02-28T21:48:28.302Z,6.30
2019-02-28T21:50:55.970Z,6.27
2019-02-28T21:53:23.806Z,6.52
2019-02-28T21:55:51.359Z,6.37
2019-02-28T21:58:18.828Z,6.44
2019-02-28T22:00:46.291Z,6.70
2019-02-28T22:03:13.641Z,6.72
2019-02-28T22:05:41.086Z,6.65
2019-02-28T22:08:08.545Z,6.51
2019-02-28T22:10:35.980Z,6.59
2019-02-28T22:13:03.689Z,6.56
2019-02-28T22:15:31.270Z,6.52
2019-02-28T22:17:58.719Z,6.40
2019-02-28T22:20:26.119Z,6.28
2019-02-28T22:22:53.541Z,6.35
2019-02-28T22:25:21.052Z,6.53
2019-02-28T22:27:48.490Z,6.53
2019-02-28T22:30:43.147Z,6.38
2019-02-28T22:33:16.571Z,6.34
2019-02-28T22:35:47.235Z,6.41
2019-02-28T22:38:14.660Z,6.37
2019-02-28T22:40:42.121Z,6.32
2019-02-28T22:43:09.485Z,6.26
2019-02-28T22:45:36.924Z,6.23
2019-02-28T22:48:04.439Z,6.35
2019-02-28T22:50:31.849Z,6.11
2019-02-28T22:52:59.279Z,5.84
2019-02-28T22:55:26.749Z,5.70
2019-02-28T22:57:54.338Z,5.80
2019-02-28T23:00:57.871Z,5.83
2019-02-28T23:03:25.944Z,5.92
2019-02-28T23:05:53.675Z,6.07
2019-02-28T23:08:21.164Z,6.08
2019-02-28T23:10:48.588Z,6.12
2019-02-28T23:13:16.057Z,6.13
2019-02-28T23:15:43.511Z,6.03
2019-02-28T23:18:10.867Z,6.27
2019-02-28T23:20:38.277Z,6.33
2019-02-28T23:23:05.853Z,6.41
2019-02-28T23:25:33.252Z,6.32
2019-02-28T23:28:11.793Z,6.48
2019-02-28T23:31:10.588Z,6.68
2019-02-28T23:33:38.028Z,6.72
2019-02-28T23:36:05.408Z,6.66
2019-02-28T23:38:32.853Z,6.50
2019-02-28T23:41:00.283Z,6.42
2019-02-28T23:43:27.655Z,6.30
2019-02-28T23:45:55.087Z,6.33
2019-02-28T23:48:22.604Z,6.55
2019-02-28T23:50:50.024Z,6.69
2019-02-28T23:53:17.462Z,6.67
2019-02-28T23:55:44.968Z,6.64
2019-02-28T23:58:12.436Z,6.59
